Aérodrome :
LOGIN :

S'inscrire | Disclaimer

   EN    FR    IT 

 










Légende :    VFR   VFR Marginal   IFR   IFR Intensif   IFR Très Intensif
Visi : 
Plafond : 
>= 8 km
>= 3000ft
5 à 8 km
1000 à 3000 ft
1500m à 5 km
500 à 1000 ft
800 à 1500m
200 à 500 ft
< 800m
< 200 ft
Symboles :   Orages  Brouillard  Fortes neiges  Fortes précipitations  Vent > 20 kt
SIGMETs :   Divers  Orages  Givrage  Turbulence  Onde Orograph.  Cendres Volcan.







- Altitude de l'aérodrome : 16 ft
- Code IATA : EAS


LESO - San Sebastian Fuenterrabia

DERNIER METAR :
  • 231330Z 04009KT 360V080 9999 FEW035 29/20 Q1014

METARs EXPIRÉS :
  • 231300Z 05008KT 010V080 9999 FEW035 29/20 Q1015
  • 231230Z 05008KT 010V090 9999 FEW035 29/19 Q1015
  • 231200Z 07006KT 010V120 9999 FEW033 28/19 Q1015
  • 231130Z 05009KT 020V100 9999 FEW025 28/19 Q1015
  • 231100Z VRB06KT 9999 FEW020 27/19 Q1016

TAF TAF LESO
Valide du 23 à 12h jusqu'au 24 à 12h UTC


231100Z 2312/2412 04010KT CAVOK TX29/2315Z TN21/2406Z
BECMG 2320/2323 VRB04KT
BECMG 2410/2412 29010KT
Pas de NOTAMs connus pour ce terrain.



MET'MAP, la Météo Aéronautique d'un coup d'oeil ! - Copyright ORBIFLY Décembre 2007 - Disclaimer

ORBIFLY MET'MAP TEAM :

Programmation & Développement : Alexandra Zaïnal
Conception & Développement : Baudouin d'Aumeries
Co-Programmation & Développement : Marc-Olivier Méhu
Soutien technique & logistique : Manuel Goepfert

Contact : metmap@orbifly.com




SOURCES & CREDITS :

   NOAA